Time;durP1;ratioP1;P1;durP2;ratioP2;P2;SDS_P1;SDS_P2;PMS_P1;PMS_P2;Temp;Humidity;BMP_temperature;BMP_pressure;BME280_temperature;BME280_humidity;BME280_pressure;Samples;Min_cycle;Max_cycle;Signal;HPM_P1;HPM_P2
2023/06/03 00:01:24;;;;;;;8.90;7.72;;;20.70;99.90;;;;;;6278025;22;20002;-63
2023/06/03 00:03:50;;;;;;;9.93;8.93;;;20.70;99.90;;;;;;6305339;22;20018;-62
2023/06/03 00:06:16;;;;;;;9.88;8.88;;;20.70;99.90;;;;;;6306912;22;20000;-63
2023/06/03 00:08:44;;;;;;;10.30;9.43;;;20.60;99.90;;;;;;6307649;22;20003;-63
2023/06/03 00:11:11;;;;;;;11.05;9.05;;;20.60;99.90;;;;;;6307012;22;19999;-63
2023/06/03 00:13:38;;;;;;;10.30;9.30;;;20.60;99.90;;;;;;6307024;22;20011;-63
2023/06/03 00:16:04;;;;;;;9.27;8.48;;;20.50;99.90;;;;;;6306698;22;20078;-63
2023/06/03 00:18:30;;;;;;;10.00;9.20;;;20.50;99.90;;;;;;6307350;22;20322;-63
2023/06/03 00:20:56;;;;;;;10.10;9.07;;;20.50;99.90;;;;;;6307644;22;20338;-64
2023/06/03 00:23:22;;;;;;;10.43;9.43;;;20.40;99.90;;;;;;6307371;22;20082;-64
2023/06/03 00:25:48;;;;;;;11.48;9.77;;;20.30;99.90;;;;;;6307297;22;20007;-63
2023/06/03 00:28:13;;;;;;;11.35;10.00;;;20.30;99.90;;;;;;6307001;22;20426;-64
2023/06/03 00:30:39;;;;;;;11.25;10.10;;;20.20;99.90;;;;;;6306639;22;20023;-64
2023/06/03 00:33:05;;;;;;;11.52;10.32;;;20.20;99.90;;;;;;6307214;22;20000;-63
2023/06/03 00:35:31;;;;;;;11.35;10.13;;;20.20;99.90;;;;;;6306827;22;20003;-63
2023/06/03 00:37:57;;;;;;;10.60;9.65;;;20.20;99.90;;;;;;6306939;22;20007;-64
2023/06/03 00:40:22;;;;;;;10.00;9.20;;;20.20;99.90;;;;;;6307716;22;20007;-64
2023/06/03 00:42:48;;;;;;;10.48;9.45;;;20.20;99.90;;;;;;6306986;22;20078;-63
2023/06/03 00:45:14;;;;;;;10.50;9.57;;;20.20;99.90;;;;;;6306756;22;20000;-63
2023/06/03 00:47:40;;;;;;;10.68;9.68;;;20.10;99.90;;;;;;6306874;22;20059;-63
2023/06/03 00:50:07;;;;;;;10.23;9.32;;;20.10;99.90;;;;;;6306764;22;20083;-62
2023/06/03 00:52:34;;;;;;;10.77;9.77;;;20.10;99.90;;;;;;6306968;22;20011;-64
2023/06/03 00:55:00;;;;;;;10.50;9.50;;;20.10;99.90;;;;;;6305891;22;20004;-63
2023/06/03 00:57:27;;;;;;;10.80;9.90;;;20.00;99.90;;;;;;6306395;22;20031;-64
2023/06/03 00:59:53;;;;;;;11.52;10.55;;;20.00;99.90;;;;;;6306084;22;20003;-63
2023/06/03 01:02:21;;;;;;;11.50;10.50;;;19.90;99.90;;;;;;6306388;22;20007;-63
2023/06/03 01:04:48;;;;;;;11.80;10.90;;;19.90;99.90;;;;;;6306747;22;19999;-63
2023/06/03 01:07:31;;;;;;;11.60;10.60;;;19.80;99.90;;;;;;6306973;22;20003;-62
2023/06/03 01:10:06;;;;;;;11.45;10.45;;;19.80;99.90;;;;;;6307093;22;20341;-63
2023/06/03 01:12:51;;;;;;;11.23;10.23;;;19.80;99.90;;;;;;6307264;22;20060;-62
2023/06/03 01:15:26;;;;;;;11.15;10.18;;;19.80;99.90;;;;;;6305160;22;20090;-63
2023/06/03 01:17:57;;;;;;;11.30;10.23;;;19.90;99.90;;;;;;6305895;22;20046;-64
2023/06/03 01:20:26;;;;;;;11.45;10.35;;;19.80;99.90;;;;;;6306935;22;20007;-64
2023/06/03 01:23:00;;;;;;;11.00;9.98;;;19.70;99.90;;;;;;6307221;22;20011;-64
2023/06/03 01:25:26;;;;;;;11.27;10.13;;;19.60;99.90;;;;;;6279787;22;19999;-64
2023/06/03 01:27:52;;;;;;;10.95;9.95;;;19.60;99.90;;;;;;6306227;22;20030;-64
2023/06/03 01:30:20;;;;;;;10.40;9.30;;;19.60;99.90;;;;;;6306591;22;20082;-64
2023/06/03 01:32:48;;;;;;;11.07;10.07;;;19.50;99.90;;;;;;6306442;22;20117;-64
2023/06/03 01:35:16;;;;;;;10.80;9.70;;;19.50;99.90;;;;;;6306639;22;19999;-63
2023/06/03 01:37:42;;;;;;;10.40;9.50;;;19.40;99.90;;;;;;6306298;22;20019;-62
2023/06/03 01:40:09;;;;;;;10.70;9.70;;;19.40;99.90;;;;;;6306369;22;20345;-63
2023/06/03 01:42:37;;;;;;;10.82;9.82;;;19.30;99.90;;;;;;6306279;22;20018;-63
2023/06/03 01:45:04;;;;;;;10.73;9.73;;;19.30;99.90;;;;;;6306267;22;20078;-63
2023/06/03 01:47:30;;;;;;;10.48;9.38;;;19.30;99.90;;;;;;6306551;22;20011;-63
2023/06/03 01:49:56;;;;;;;10.30;9.35;;;19.30;99.90;;;;;;6306664;22;19999;-63
2023/06/03 01:52:22;;;;;;;10.63;9.20;;;19.30;99.90;;;;;;6306706;22;20004;-63
2023/06/03 01:54:48;;;;;;;11.10;9.95;;;19.20;99.90;;;;;;6306332;22;20003;-64
2023/06/03 01:57:14;;;;;;;10.82;9.82;;;19.30;99.90;;;;;;6305907;22;20042;-63
2023/06/03 01:59:40;;;;;;;11.57;9.77;;;19.20;99.90;;;;;;6306219;22;20003;-63
2023/06/03 02:02:05;;;;;;;10.32;9.43;;;19.20;99.90;;;;;;6306099;22;20017;-64
2023/06/03 02:04:31;;;;;;;11.05;9.98;;;19.20;99.90;;;;;;6306503;22;20065;-63
2023/06/03 02:06:59;;;;;;;10.50;9.60;;;19.20;99.90;;;;;;6306382;22;20323;-64
2023/06/03 02:09:30;;;;;;;10.45;9.50;;;19.10;99.90;;;;;;6306410;22;20079;-63
2023/06/03 02:11:57;;;;;;;10.73;9.82;;;19.10;99.90;;;;;;6305728;22;20004;-64
2023/06/03 02:14:24;;;;;;;11.43;10.23;;;19.10;99.90;;;;;;6306084;22;20173;-63
2023/06/03 02:16:50;;;;;;;11.30;10.20;;;19.10;99.90;;;;;;6306088;22;20082;-63
2023/06/03 02:19:18;;;;;;;11.45;10.35;;;19.10;99.90;;;;;;6305983;22;20319;-64
2023/06/03 02:21:44;;;;;;;10.98;9.98;;;19.00;99.90;;;;;;6305941;22;19999;-62
2023/06/03 02:24:11;;;;;;;10.73;9.70;;;19.00;99.90;;;;;;6305939;22;19999;-64
2023/06/03 02:26:39;;;;;;;12.13;11.02;;;19.00;99.90;;;;;;6306286;22;20007;-63
2023/06/03 02:29:06;;;;;;;11.23;10.15;;;19.00;99.90;;;;;;6305662;22;20007;-62
2023/06/03 02:31:32;;;;;;;11.23;10.27;;;19.00;99.90;;;;;;6305702;22;20090;-62
2023/06/03 02:33:58;;;;;;;10.40;9.60;;;19.00;99.90;;;;;;6306427;22;20315;-63
2023/06/03 02:36:24;;;;;;;11.80;10.75;;;18.90;99.90;;;;;;6305821;22;20064;-63
2023/06/03 02:38:50;;;;;;;11.90;10.80;;;18.90;99.90;;;;;;6305630;22;20011;-63
2023/06/03 02:41:16;;;;;;;11.90;10.80;;;18.90;99.90;;;;;;6306019;22;20017;-63
2023/06/03 02:43:41;;;;;;;11.18;10.20;;;18.90;99.90;;;;;;6305658;22;19999;-62
2023/06/03 02:46:07;;;;;;;12.60;11.50;;;18.90;99.90;;;;;;6305682;22;19999;-63
2023/06/03 02:48:34;;;;;;;12.00;10.88;;;18.90;99.90;;;;;;6305962;22;20010;-63
2023/06/03 02:51:00;;;;;;;12.40;11.32;;;18.80;99.90;;;;;;6305586;22;20006;-63
2023/06/03 02:53:26;;;;;;;12.93;11.73;;;18.70;99.90;;;;;;6305910;22;20007;-63
2023/06/03 02:55:51;;;;;;;12.45;11.35;;;18.70;99.90;;;;;;6305303;22;20441;-63
2023/06/03 02:58:17;;;;;;;13.40;12.00;;;18.60;99.90;;;;;;6305268;22;20015;-63
2023/06/03 03:00:43;;;;;;;12.75;11.80;;;18.60;99.90;;;;;;6305642;22;20430;-62
2023/06/03 03:03:09;;;;;;;16.42;11.27;;;18.60;99.90;;;;;;6305755;22;20010;-64
2023/06/03 03:05:35;;;;;;;12.73;11.63;;;18.60;99.90;;;;;;6305344;22;20604;-64
2023/06/03 03:08:02;;;;;;;12.82;11.88;;;18.50;99.90;;;;;;6306088;22;20060;-63
2023/06/03 03:10:28;;;;;;;12.77;11.68;;;18.50;99.90;;;;;;6305512;22;20003;-63
2023/06/03 03:12:53;;;;;;;12.25;11.15;;;18.50;99.90;;;;;;6305580;22;20338;-64
2023/06/03 03:15:19;;;;;;;13.30;12.20;;;18.50;99.90;;;;;;6278115;22;20003;-63
2023/06/03 03:17:45;;;;;;;14.10;12.70;;;18.40;99.90;;;;;;6305451;22;20031;-64
2023/06/03 03:20:12;;;;;;;13.90;12.48;;;18.40;99.90;;;;;;6305729;22;20053;-63
2023/06/03 03:22:44;;;;;;;13.27;12.10;;;18.30;99.90;;;;;;6306132;22;20023;-63
2023/06/03 03:25:12;;;;;;;14.50;13.18;;;18.30;99.90;;;;;;6304715;22;19999;-63
2023/06/03 03:27:38;;;;;;;13.95;12.75;;;18.20;99.90;;;;;;6305320;22;20088;-64
2023/06/03 03:30:05;;;;;;;15.07;13.70;;;18.20;99.90;;;;;;6305196;22;19995;-63
2023/06/03 03:32:31;;;;;;;14.80;13.52;;;18.20;99.90;;;;;;6305346;22;20003;-64
2023/06/03 03:35:13;;;;;;;15.00;13.77;;;18.20;99.90;;;;;;6305487;22;20002;-64
2023/06/03 03:37:40;;;;;;;15.30;14.00;;;18.20;99.90;;;;;;6305506;22;20007;-64
2023/06/03 03:40:17;;;;;;;16.10;14.77;;;18.10;99.90;;;;;;6277236;22;20003;-63
2023/06/03 03:42:50;;;;;;;15.48;14.27;;;18.10;99.90;;;;;;6305532;22;20014;-63
2023/06/03 03:45:36;;;;;;;13.90;12.70;;;18.20;99.90;;;;;;6305266;22;20014;-64
2023/06/03 03:48:03;;;;;;;14.50;13.38;;;18.20;99.90;;;;;;6305276;22;20442;-64
2023/06/03 03:50:38;;;;;;;15.55;14.18;;;18.20;99.90;;;;;;6305151;22;20004;-63
2023/06/03 03:53:05;;;;;;;15.63;14.07;;;18.20;99.90;;;;;;6305219;22;20003;-64
2023/06/03 03:55:32;;;;;;;16.30;14.88;;;18.20;99.90;;;;;;6304607;22;19999;-64
2023/06/03 03:58:03;;;;;;;16.48;14.93;;;18.20;99.90;;;;;;6305273;22;20068;-63
2023/06/03 04:00:29;;;;;;;15.65;14.45;;;18.10;99.90;;;;;;6305160;22;20440;-64
2023/06/03 04:02:55;;;;;;;16.92;15.43;;;18.10;99.90;;;;;;6305246;22;20006;-64
2023/06/03 04:05:22;;;;;;;17.23;15.93;;;18.00;99.90;;;;;;6305221;22;20330;-63
2023/06/03 04:07:49;;;;;;;18.52;16.73;;;18.10;99.90;;;;;;6304879;22;20007;-63
2023/06/03 04:10:15;;;;;;;19.90;18.05;;;18.10;99.90;;;;;;6304946;22;20082;-64
2023/06/03 04:12:41;;;;;;;20.95;19.25;;;18.10;99.90;;;;;;6305232;22;20031;-63
2023/06/03 04:15:08;;;;;;;21.30;19.70;;;18.00;99.90;;;;;;6304950;22;19995;-64
2023/06/03 04:17:37;;;;;;;20.98;19.20;;;18.00;99.90;;;;;;6304884;22;20060;-63
2023/06/03 04:20:15;;;;;;;21.42;19.73;;;17.90;99.90;;;;;;6304923;22;20053;-64
2023/06/03 04:22:41;;;;;;;21.90;20.20;;;17.80;99.90;;;;;;6304650;22;20000;-62
2023/06/03 04:25:09;;;;;;;21.08;19.38;;;17.90;99.90;;;;;;6304891;22;20013;-63
2023/06/03 04:27:34;;;;;;;21.92;20.13;;;17.90;99.90;;;;;;6305203;22;19999;-63
2023/06/03 04:30:01;;;;;;;22.30;20.55;;;17.90;99.90;;;;;;6305327;22;20065;-63
2023/06/03 04:32:26;;;;;;;23.30;21.48;;;17.90;99.90;;;;;;6304864;22;20061;-63
2023/06/03 04:34:54;;;;;;;23.45;21.55;;;17.80;99.90;;;;;;6305226;22;20007;-64
2023/06/03 04:37:22;;;;;;;24.70;22.85;;;17.80;99.90;;;;;;6305002;22;20033;-64
2023/06/03 04:39:48;;;;;;;25.48;23.10;;;17.80;99.90;;;;;;6304866;22;20313;-64
2023/06/03 04:42:15;;;;;;;24.65;22.65;;;17.80;99.90;;;;;;6304886;22;20507;-63
2023/06/03 04:44:42;;;;;;;23.13;21.33;;;17.80;99.90;;;;;;6304905;22;20003;-63
2023/06/03 04:47:11;;;;;;;24.75;22.42;;;17.80;99.90;;;;;;6304878;22;20014;-63
2023/06/03 04:49:40;;;;;;;23.83;21.92;;;17.80;99.90;;;;;;6305343;22;20326;-64
2023/06/03 04:52:09;;;;;;;23.35;21.40;;;17.80;99.90;;;;;;6306344;22;19999;-64
2023/06/03 04:54:40;;;;;;;23.77;21.70;;;17.80;99.90;;;;;;6307009;22;20013;-64
2023/06/03 04:57:06;;;;;;;24.08;22.25;;;17.70;99.90;;;;;;6306908;22;20014;-63
2023/06/03 04:59:32;;;;;;;22.33;20.42;;;17.70;99.90;;;;;;6307319;22;20007;-64
2023/06/03 05:01:57;;;;;;;23.40;21.52;;;17.70;99.90;;;;;;6306619;22;20042;-64
2023/06/03 05:04:23;;;;;;;23.60;21.80;;;17.70;99.90;;;;;;6306781;22;20004;-64
2023/06/03 05:06:49;;;;;;;23.65;21.75;;;17.70;99.90;;;;;;6306299;22;20009;-63
2023/06/03 05:09:15;;;;;;;22.80;21.02;;;17.60;99.90;;;;;;6306508;22;20045;-63
2023/06/03 05:11:42;;;;;;;22.52;20.70;;;17.60;99.90;;;;;;6307187;22;20064;-63
2023/06/03 05:14:09;;;;;;;22.05;20.15;;;17.60;99.90;;;;;;6306815;22;19995;-63
2023/06/03 05:16:35;;;;;;;21.75;19.80;;;17.60;99.90;;;;;;6306718;22;20015;-62
2023/06/03 05:19:01;;;;;;;21.42;19.70;;;17.60;99.90;;;;;;6306455;22;20442;-64
2023/06/03 05:21:26;;;;;;;21.42;19.83;;;17.70;99.90;;;;;;6306584;22;20060;-64
2023/06/03 05:23:52;;;;;;;21.65;19.85;;;17.70;99.90;;;;;;6306570;22;20351;-63
2023/06/03 05:26:18;;;;;;;20.85;19.25;;;17.70;99.90;;;;;;6306532;22;20049;-63
2023/06/03 05:28:44;;;;;;;21.63;19.73;;;17.70;99.90;;;;;;6306852;22;20014;-63
2023/06/03 05:31:10;;;;;;;19.85;18.33;;;17.70;99.90;;;;;;6306545;22;20072;-63
2023/06/03 05:33:36;;;;;;;19.92;18.25;;;17.80;99.90;;;;;;6306781;22;20019;-63
2023/06/03 05:36:01;;;;;;;21.27;18.77;;;17.80;99.90;;;;;;6306340;22;20392;-64
2023/06/03 05:38:27;;;;;;;20.15;18.52;;;17.90;99.90;;;;;;6306586;22;20042;-65
2023/06/03 05:40:53;;;;;;;20.02;18.42;;;17.90;99.90;;;;;;6306630;22;20010;-65
2023/06/03 05:43:19;;;;;;;21.38;19.73;;;18.00;99.90;;;;;;6306492;22;20048;-64
2023/06/03 05:45:46;;;;;;;21.50;19.60;;;18.00;99.90;;;;;;6306435;22;20006;-65
2023/06/03 05:48:11;;;;;;;20.17;18.48;;;18.10;99.90;;;;;;6306478;22;20315;-64
2023/06/03 05:50:39;;;;;;;19.20;17.60;;;18.10;99.90;;;;;;6305997;22;20027;-64
2023/06/03 05:53:05;;;;;;;19.63;17.92;;;18.10;99.90;;;;;;6306445;22;20005;-63
2023/06/03 05:55:31;;;;;;;19.30;17.60;;;18.10;99.90;;;;;;6306067;22;20433;-65
2023/06/03 05:57:57;;;;;;;19.45;17.88;;;18.10;99.90;;;;;;6306029;22;20011;-63
2023/06/03 06:00:23;;;;;;;19.77;18.17;;;18.10;99.90;;;;;;6306355;22;20011;-64
2023/06/03 06:02:50;;;;;;;18.75;17.33;;;18.10;99.90;;;;;;6306076;22;20007;-64
2023/06/03 06:05:16;;;;;;;19.40;17.80;;;18.20;99.90;;;;;;6305758;22;20003;-64
2023/06/03 06:07:41;;;;;;;19.20;17.70;;;18.20;99.90;;;;;;6305968;22;20319;-64
2023/06/03 06:10:07;;;;;;;18.65;17.08;;;18.20;99.90;;;;;;6305905;22;20010;-65
2023/06/03 06:12:33;;;;;;;18.58;17.10;;;18.30;99.90;;;;;;6306049;22;20007;-64
2023/06/03 06:14:58;;;;;;;17.52;16.10;;;18.40;99.90;;;;;;6306180;22;20007;-64
2023/06/03 06:17:24;;;;;;;18.17;16.58;;;18.40;99.90;;;;;;6305961;22;20086;-64
2023/06/03 06:19:50;;;;;;;16.60;15.07;;;18.40;99.90;;;;;;6305760;22;20000;-64
2023/06/03 06:22:16;;;;;;;17.17;15.77;;;18.40;99.90;;;;;;6305632;22;20076;-64
2023/06/03 06:24:42;;;;;;;16.77;15.48;;;18.50;99.90;;;;;;6305857;22;19999;-64
2023/06/03 06:27:08;;;;;;;17.30;15.70;;;18.60;99.90;;;;;;6305728;22;20022;-64
2023/06/03 06:29:34;;;;;;;17.08;15.57;;;18.60;99.90;;;;;;6306668;22;20376;-64
2023/06/03 06:32:01;;;;;;;16.58;15.18;;;18.60;99.90;;;;;;6305211;22;20067;-64
2023/06/03 06:34:29;;;;;;;15.85;14.52;;;18.60;99.90;;;;;;6305600;22;20082;-65
2023/06/03 06:36:56;;;;;;;16.27;14.85;;;18.60;99.90;;;;;;6305819;22;20086;-64
2023/06/03 06:39:34;;;;;;;15.80;14.40;;;18.70;99.90;;;;;;6305820;22;20000;-64
2023/06/03 06:42:11;;;;;;;15.05;13.85;;;18.70;99.90;;;;;;6306440;22;20005;-64
2023/06/03 06:44:45;;;;;;;14.00;12.95;;;18.80;99.90;;;;;;6306191;22;20057;-64
2023/06/03 06:47:14;;;;;;;14.30;13.10;;;18.80;99.90;;;;;;6306045;22;19995;-64
2023/06/03 06:49:40;;;;;;;15.35;13.98;;;18.80;99.90;;;;;;6305631;22;19999;-64
2023/06/03 06:52:09;;;;;;;13.98;12.77;;;18.80;99.90;;;;;;6305060;22;19999;-64
2023/06/03 06:54:35;;;;;;;15.60;14.32;;;18.90;99.90;;;;;;6306055;22;19995;-64
2023/06/03 06:57:01;;;;;;;14.88;13.70;;;19.00;99.90;;;;;;6305344;22;20020;-64
2023/06/03 06:59:27;;;;;;;14.93;13.60;;;19.00;99.90;;;;;;6306148;22;20011;-64
2023/06/03 07:01:52;;;;;;;15.05;13.38;;;19.00;99.90;;;;;;6305506;22;20094;-64
2023/06/03 07:04:18;;;;;;;11.90;10.75;;;19.00;99.90;;;;;;6305468;22;19995;-63
2023/06/03 07:06:43;;;;;;;11.07;10.10;;;19.10;99.90;;;;;;6305392;22;19999;-64
2023/06/03 07:09:09;;;;;;;10.55;9.65;;;19.10;99.90;;;;;;6305844;22;20007;-65
2023/06/03 07:11:44;;;;;;;10.43;8.88;;;19.20;99.90;;;;;;6305656;22;20338;-64
2023/06/03 07:14:10;;;;;;;10.15;9.25;;;19.20;99.90;;;;;;6305172;22;20057;-64
2023/06/03 07:16:35;;;;;;;11.45;9.60;;;19.20;99.90;;;;;;6304938;22;20003;-65
2023/06/03 07:19:02;;;;;;;10.07;9.25;;;19.30;99.90;;;;;;6305628;22;20014;-64
2023/06/03 07:21:28;;;;;;;9.95;9.07;;;19.30;99.90;;;;;;6306104;22;20338;-63
2023/06/03 07:23:54;;;;;;;10.57;9.57;;;19.40;99.90;;;;;;6305566;22;20003;-64
2023/06/03 07:26:20;;;;;;;10.48;9.43;;;19.40;99.90;;;;;;6305647;22;20000;-64
2023/06/03 07:28:47;;;;;;;10.13;9.20;;;19.50;99.90;;;;;;6305436;22;20065;-65
2023/06/03 07:31:13;;;;;;;10.68;9.57;;;19.50;99.90;;;;;;6304661;22;20485;-64
2023/06/03 07:33:50;;;;;;;10.73;9.77;;;19.60;99.90;;;;;;6305331;22;20003;-65
2023/06/03 07:36:18;;;;;;;11.35;10.02;;;19.60;99.90;;;;;;6305570;22;20430;-64
2023/06/03 07:39:14;;;;;;;11.18;10.27;;;19.70;99.90;;;;;;6305604;22;20018;-64
2023/06/03 07:41:52;;;;;;;10.98;9.95;;;19.70;99.90;;;;;;6277826;22;20007;-64
2023/06/03 07:44:24;;;;;;;10.75;9.82;;;19.80;99.90;;;;;;6305022;22;20027;-64
2023/06/03 07:46:57;;;;;;;11.38;10.38;;;19.90;99.90;;;;;;6304845;22;20006;-64
2023/06/03 07:49:23;;;;;;;11.10;9.83;;;19.90;99.90;;;;;;6305944;22;20003;-64
2023/06/03 07:51:51;;;;;;;10.30;9.50;;;20.00;99.90;;;;;;6305103;22;20026;-65
2023/06/03 07:54:18;;;;;;;11.02;10.02;;;20.10;99.90;;;;;;6305006;22;20014;-64
2023/06/03 07:56:45;;;;;;;11.23;10.05;;;20.20;99.90;;;;;;6305394;22;20334;-64
2023/06/03 07:59:15;;;;;;;11.30;9.18;;;20.30;99.90;;;;;;6305310;22;20013;-64
2023/06/03 08:01:42;;;;;;;10.60;9.50;;;20.40;99.90;;;;;;6305102;22;20002;-65
2023/06/03 08:04:35;;;;;;;11.45;10.23;;;20.50;99.90;;;;;;6305176;22;20065;-64
2023/06/03 08:07:02;;;;;;;10.75;9.75;;;20.60;99.90;;;;;;6305095;22;20025;-64
2023/06/03 08:09:30;;;;;;;10.57;9.55;;;20.60;99.90;;;;;;6305097;22;20441;-64
2023/06/03 08:11:57;;;;;;;9.75;8.82;;;20.70;99.90;;;;;;6304979;22;20027;-65
2023/06/03 08:14:24;;;;;;;9.63;8.73;;;20.80;99.90;;;;;;6305112;22;20080;-64
2023/06/03 08:16:50;;;;;;;9.90;9.10;;;20.80;99.90;;;;;;6304975;22;20453;-63
2023/06/03 08:19:17;;;;;;;10.23;9.20;;;20.90;99.90;;;;;;6304892;22;20007;-64
2023/06/03 08:21:46;;;;;;;9.55;8.68;;;21.00;99.90;;;;;;6304917;22;20038;-64
2023/06/03 08:24:13;;;;;;;11.55;9.05;;;21.10;99.90;;;;;;6305191;22;20090;-64
2023/06/03 08:26:48;;;;;;;10.45;9.63;;;21.20;99.90;;;;;;6306809;22;20459;-64
2023/06/03 08:29:13;;;;;;;9.32;8.63;;;21.20;99.90;;;;;;6306380;22;20460;-63
2023/06/03 08:31:39;;;;;;;9.88;8.90;;;21.30;99.90;;;;;;6306782;22;20020;-64
2023/06/03 08:34:05;;;;;;;10.70;9.50;;;21.40;99.90;;;;;;6307097;22;20010;-64
2023/06/03 08:36:32;;;;;;;10.75;9.85;;;21.40;99.90;;;;;;6307313;22;20438;-64
2023/06/03 08:38:58;;;;;;;10.60;9.70;;;21.50;99.90;;;;;;6306950;22;20447;-63
2023/06/03 08:41:37;;;;;;;10.52;9.63;;;21.60;99.90;;;;;;6307029;22;20315;-64
2023/06/03 08:44:30;;;;;;;9.75;8.85;;;21.60;99.90;;;;;;6306762;22;20027;-64
2023/06/03 08:47:13;;;;;;;9.57;8.70;;;21.60;99.90;;;;;;6306811;22;20003;-65
2023/06/03 08:50:03;;;;;;;9.15;8.25;;;21.60;99.90;;;;;;6306801;22;19995;-64
2023/06/03 08:52:37;;;;;;;8.85;7.95;;;21.80;99.90;;;;;;6306979;22;20014;-64
2023/06/03 08:55:05;;;;;;;8.93;7.90;;;21.90;99.90;;;;;;6307139;22;19999;-64
2023/06/03 08:57:40;;;;;;;9.65;8.73;;;22.00;99.90;;;;;;6278965;22;20041;-64
2023/06/03 09:00:07;;;;;;;9.07;8.27;;;22.00;99.90;;;;;;6306970;22;20357;-64
2023/06/03 09:02:34;;;;;;;8.60;7.80;;;22.10;99.90;;;;;;6307063;22;20338;-64
2023/06/03 09:05:01;;;;;;;8.90;8.00;;;22.20;99.90;;;;;;6307077;22;20078;-64
2023/06/03 09:07:29;;;;;;;8.77;7.47;;;22.20;99.90;;;;;;6307070;22;20046;-64
2023/06/03 09:09:56;;;;;;;8.55;7.75;;;22.30;99.90;;;;;;6306693;22;19999;-64
2023/06/03 09:12:25;;;;;;;9.00;8.20;;;22.40;99.90;;;;;;6306524;22;20440;-64
2023/06/03 09:14:54;;;;;;;9.02;8.23;;;22.50;99.90;;;;;;6279096;22;20003;-65
2023/06/03 09:17:24;;;;;;;8.38;7.57;;;22.50;99.90;;;;;;6306726;22;20008;-64
2023/06/03 09:19:50;;;;;;;7.82;7.13;;;22.50;99.90;;;;;;6307167;22;20003;-64
2023/06/03 09:22:17;;;;;;;8.07;7.20;;;22.60;99.90;;;;;;6306548;22;20010;-64
2023/06/03 09:24:43;;;;;;;9.45;8.10;;;22.60;99.90;;;;;;6307313;22;20013;-64
2023/06/03 09:27:08;;;;;;;14.10;8.02;;;22.80;99.90;;;;;;6305995;22;20378;-64
2023/06/03 09:29:34;;;;;;;10.63;7.53;;;22.90;99.90;;;;;;6306805;22;20009;-64
2023/06/03 09:32:00;;;;;;;9.43;7.20;;;23.00;99.90;;;;;;6306731;22;20073;-63
2023/06/03 09:34:26;;;;;;;7.70;7.00;;;23.10;99.90;;;;;;6306710;22;20034;-64
2023/06/03 09:36:52;;;;;;;7.72;7.00;;;23.10;99.90;;;;;;6305980;22;20004;-64
2023/06/03 09:39:38;;;;;;;7.72;7.07;;;23.30;99.90;;;;;;6306231;22;20145;-63
2023/06/03 09:42:04;;;;;;;7.22;6.57;;;23.40;99.90;;;;;;6305877;22;20461;-64
2023/06/03 09:44:49;;;;;;;7.60;6.90;;;23.50;99.90;;;;;;6306289;22;20073;-64
2023/06/03 09:47:16;;;;;;;16.27;14.60;;;23.30;99.90;;;;;;6306249;22;20395;-63
2023/06/03 09:50:09;;;;;;;8.32;7.53;;;23.30;99.90;;;;;;6306555;22;20007;-64
2023/06/03 09:52:36;;;;;;;7.60;7.00;;;23.60;99.90;;;;;;6301435;22;20006;-64
2023/06/03 09:55:10;;;;;;;8.68;7.78;;;23.70;99.90;;;;;;6306542;22;20374;-63
2023/06/03 09:57:39;;;;;;;9.93;8.32;;;23.80;99.90;;;;;;6306033;22;20043;-64
2023/06/03 10:00:11;;;;;;;9.32;8.52;;;23.80;99.90;;;;;;6306357;22;20371;-63
2023/06/03 10:02:38;;;;;;;9.82;8.82;;;23.90;99.90;;;;;;6306692;22;20003;-64
2023/06/03 10:05:24;;;;;;;8.88;8.10;;;24.00;99.90;;;;;;6306318;22;20074;-64
2023/06/03 10:07:50;;;;;;;9.18;8.35;;;24.10;99.90;;;;;;6306053;22;20003;-63
2023/06/03 10:10:16;;;;;;;9.30;8.35;;;24.10;99.90;;;;;;6306090;22;20053;-64
2023/06/03 10:12:41;;;;;;;8.13;7.47;;;24.20;99.90;;;;;;6306155;22;20007;-64
2023/06/03 10:15:08;;;;;;;9.27;7.47;;;24.20;99.90;;;;;;6306172;22;20004;-64
2023/06/03 10:17:33;;;;;;;7.57;6.60;;;24.40;99.90;;;;;;6305787;22;20012;-64
2023/06/03 10:19:59;;;;;;;10.70;5.80;;;24.50;99.90;;;;;;6305909;22;20056;-64
2023/06/03 10:22:26;;;;;;;5.63;5.10;;;24.70;99.90;;;;;;6306235;22;20038;-63
2023/06/03 10:24:55;;;;;;;5.85;5.25;;;24.80;99.90;;;;;;6278633;22;20010;-64
2023/06/03 10:27:21;;;;;;;5.88;5.15;;;24.70;99.90;;;;;;6305974;22;20802;-63
2023/06/03 10:29:52;;;;;;;5.22;4.82;;;24.80;99.90;;;;;;6306548;22;20057;-64
2023/06/03 10:32:20;;;;;;;6.07;5.55;;;24.90;99.90;;;;;;6306086;22;20065;-63
2023/06/03 10:34:47;;;;;;;6.80;6.10;;;24.80;99.90;;;;;;6306064;22;20000;-64
2023/06/03 10:37:14;;;;;;;7.28;6.40;;;24.80;99.90;;;;;;6305774;22;20018;-64
2023/06/03 10:39:42;;;;;;;7.57;5.35;;;24.90;99.90;;;;;;6305437;22;20023;-64
2023/06/03 10:42:10;;;;;;;5.57;5.00;;;25.10;99.90;;;;;;6305720;22;20075;-65
2023/06/03 10:44:36;;;;;;;5.60;5.10;;;25.10;99.90;;;;;;6305746;22;20440;-64
2023/06/03 10:47:06;;;;;;;5.50;4.95;;;25.20;99.90;;;;;;6305674;22;20023;-63
2023/06/03 10:49:37;;;;;;;5.78;5.28;;;25.40;99.90;;;;;;6306019;22;20065;-64
2023/06/03 10:52:27;;;;;;;6.93;6.05;;;25.40;99.90;;;;;;6306057;22;20003;-64
2023/06/03 10:55:08;;;;;;;7.13;6.40;;;25.40;99.90;;;;;;6305310;22;19995;-64
2023/06/03 10:57:41;;;;;;;7.28;6.57;;;25.40;99.90;;;;;;6306064;22;20086;-63
2023/06/03 11:00:09;;;;;;;6.75;6.10;;;25.30;99.90;;;;;;6306034;22;20007;-64
2023/06/03 11:03:06;;;;;;;6.97;6.35;;;25.20;99.90;;;;;;6306018;22;20319;-63
2023/06/03 11:05:32;;;;;;;6.45;5.25;;;25.50;99.90;;;;;;6306105;22;20696;-64
2023/06/03 11:07:58;;;;;;;5.40;5.00;;;25.60;99.90;;;;;;6305286;22;20060;-63
2023/06/03 11:10:36;;;;;;;6.13;4.97;;;25.70;99.90;;;;;;6305742;22;20315;-64
2023/06/03 11:13:03;;;;;;;5.88;5.30;;;25.70;99.90;;;;;;6305388;22;19999;-64
2023/06/03 11:15:56;;;;;;;6.53;5.80;;;25.70;99.90;;;;;;6305739;22;20422;-64
2023/06/03 11:18:22;;;;;;;7.35;5.60;;;25.80;99.90;;;;;;6305507;22;20014;-64
2023/06/03 11:20:48;;;;;;;6.03;5.18;;;25.90;99.90;;;;;;6305376;22;20003;-64
2023/06/03 11:23:38;;;;;;;5.40;4.90;;;26.10;99.90;;;;;;6305451;22;20056;-64
2023/06/03 11:26:33;;;;;;;5.43;4.95;;;26.10;99.90;;;;;;6305606;22;20035;-63
2023/06/03 11:29:00;;;;;;;5.82;5.22;;;26.50;99.90;;;;;;6305561;22;20014;-63
2023/06/03 11:31:27;;;;;;;8.05;4.90;;;26.40;99.90;;;;;;6305387;22;20013;-64
2023/06/03 11:34:23;;;;;;;7.35;4.75;;;26.20;99.90;;;;;;6305555;22;20341;-65
2023/06/03 11:36:53;;;;;;;5.28;4.60;;;26.10;99.90;;;;;;6305482;22;20007;-64
2023/06/03 11:39:20;;;;;;;5.93;4.90;;;26.30;99.90;;;;;;6305488;22;20007;-65
2023/06/03 11:42:02;;;;;;;5.53;4.40;;;26.20;99.90;;;;;;6305068;22;20060;-64
2023/06/03 11:44:28;;;;;;;5.38;4.88;;;26.40;99.90;;;;;;6305169;22;20017;-64
2023/06/03 11:46:54;;;;;;;6.00;5.18;;;26.60;99.90;;;;;;6305194;22;20027;-63
2023/06/03 11:49:23;;;;;;;5.40;4.70;;;26.80;99.90;;;;;;6306288;22;20078;-63
2023/06/03 11:51:58;;;;;;;4.88;4.38;;;26.90;99.90;;;;;;6304685;22;20079;-63
2023/06/03 11:54:24;;;;;;;4.30;3.90;;;27.00;99.90;;;;;;6305370;22;20006;-64
2023/06/03 11:56:51;;;;;;;4.30;3.70;;;27.40;99.90;;;;;;6304915;22;20048;-64
2023/06/03 11:59:25;;;;;;;3.75;3.42;;;27.60;99.90;;;;;;6305433;22;20008;-64
2023/06/03 12:02:01;;;;;;;3.90;3.50;;;27.70;99.90;;;;;;6305010;22;19999;-64
2023/06/03 12:04:28;;;;;;;4.90;3.67;;;27.60;99.90;;;;;;6305437;22;20007;-64
2023/06/03 12:06:53;;;;;;;3.75;3.40;;;27.50;99.90;;;;;;6304829;22;20010;-64
2023/06/03 12:09:21;;;;;;;4.75;3.58;;;27.60;99.90;;;;;;6305288;22;20027;-63
2023/06/03 12:11:47;;;;;;;4.18;3.78;;;27.70;99.90;;;;;;6305289;22;20008;-63
2023/06/03 12:14:28;;;;;;;4.93;3.60;;;27.80;99.90;;;;;;6305314;22;20503;-64
2023/06/03 12:16:56;;;;;;;3.95;3.65;;;28.10;99.90;;;;;;6277663;22;20372;-63
2023/06/03 12:19:22;;;;;;;4.57;3.40;;;28.40;99.90;;;;;;6305272;22;20011;-63
2023/06/03 12:21:58;;;;;;;4.32;3.92;;;28.40;99.90;;;;;;6305507;22;20349;-63
2023/06/03 12:24:34;;;;;;;4.47;3.50;;;28.40;99.90;;;;;;6304825;22;20007;-63
2023/06/03 12:27:22;;;;;;;4.10;3.80;;;28.40;99.90;;;;;;6305192;22;20322;-63
2023/06/03 12:29:50;;;;;;;4.40;3.75;;;28.20;99.90;;;;;;6305332;22;20007;-64
2023/06/03 12:32:17;;;;;;;6.38;3.78;;;28.10;99.90;;;;;;6305269;22;20015;-64
2023/06/03 12:34:44;;;;;;;4.20;3.80;;;28.10;99.90;;;;;;6305524;22;20011;-64
2023/06/03 12:37:12;;;;;;;4.00;3.70;;;28.00;99.90;;;;;;6304185;22;20456;-64
2023/06/03 12:39:48;;;;;;;3.88;3.53;;;28.10;99.90;;;;;;6304657;22;20723;-63
2023/06/03 12:42:16;;;;;;;4.43;4.03;;;28.20;99.90;;;;;;6304911;22;19995;-64
2023/06/03 12:44:45;;;;;;;4.50;3.40;;;28.30;99.90;;;;;;6304850;22;20009;-64